Aérodrome :
LOGIN :

S'inscrire | Disclaimer

   EN    FR    IT 

 










Légende :    VFR   VFR Marginal   IFR   IFR Intensif   IFR Très Intensif
Visi : 
Plafond : 
>= 8 km
>= 3000ft
5 à 8 km
1000 à 3000 ft
1500m à 5 km
500 à 1000 ft
800 à 1500m
200 à 500 ft
< 800m
< 200 ft
Symboles :   Orages  Brouillard  Fortes neiges  Fortes précipitations  Vent > 20 kt
SIGMETs :   Divers  Orages  Givrage  Turbulence  Onde Orograph.  Cendres Volcan.







- Altitude de l'aérodrome : 209 ft
- Code IATA : CLY
- Voir les cartes d'approche


LFKC - Calvi

DERNIER METAR :
  • 011730Z AUTO 21014G27KT 180V240 CAVOK 13/02 Q1018 NOSIG

METARs EXPIRÉS :
  • 011700Z AUTO 19017G27KT 160V220 CAVOK 13/03 Q1017 NOSIG
  • 011630Z 21020G33KT 9999 FEW040 BKN260 13/03 Q1017 NOSIG
  • 011600Z 20017KT CAVOK 15/00 Q1016 TEMPO 20016G28KT
  • 011530Z 20016KT 170V230 CAVOK 15/M01 Q1016 TEMPO 20016G28KT
  • 011500Z 20017KT CAVOK 16/01 Q1016 TEMPO 20016G28KT

TAF TAF LFKC
Valide du 01 à 18h jusqu'au 02 à 18h UTC


011700Z 0118/0218 21018G32KT 9999 FEW030 BKN250
BECMG 0212/0215 21015KT TX18/0212Z TN09/0205Z
ATIS : +33 4 95 65 82 49
Pas de NOTAMs connus pour ce terrain.
6 SIGMETs publiés pour la FIR Marseille (LFMM) :
 
Onde orographique forte
LFMM SIGMET 17 VALID 011800/012200 LFPW
LFMM MARSEILLE FIR/UIR SEV MTW FCST E OF E00845 SFC/FL250 STNR NC=
Onde orographique forte
LFMM SIGMET 16 VALID 011800/012200 LFPW
LFMM MARSEILLE FIR/UIR SEV MTW FCST WI N4600 E00700 - N4400 E00700 - N4400 E00715 - N4330 E00700 - N4400 E00615 - N4600 E00645 SFC/FL200 STNR NC=
Turbulence forte
LFMM SIGMET 15 VALID 011800/012200 LFPW
LFMM MARSEILLE FIR/UIR SEV TURB OBS WI N4345 E00730 - N4315 E00945 - N4115 E00945 - N4115 E00845 - N4300 E00600 - N4345 E00645 SFC/FL050 STNR NC=
Onde orographique forte
LFMM SIGMET 14 VALID 011500/011800 LFPW
LFMM MARSEILLE FIR/UIR SEV MTW FCST E OF E00845 SFC/FL250 STNR NC=
Onde orographique forte
LFMM SIGMET 13 VALID 011500/011800 LFPW
LFMM MARSEILLE FIR/UIR SEV MTW FCST WI N4600 E00700 - N4400 E00700 - N4400 E00715 - N4330 E00700 - N4400 E00615 - N4600 E00645 SFC/FL200 STNR NC=
Turbulence forte
LFMM SIGMET 12 VALID 011500/011800 LFPW
LFMM MARSEILLE FIR/UIR SEV TURB OBS WI N4345 E00730 - N4315 E00945 - N4115 E00945 - N4115 E00900 - N4300 E00630 SFC/FL050 STNR NC=



MET'MAP, la Météo Aéronautique d'un coup d'oeil ! - Copyright ORBIFLY Décembre 2007 - Disclaimer

ORBIFLY MET'MAP TEAM :

Programmation & Développement : Alexandra Zaïnal
Conception & Développement : Baudouin d'Aumeries
Co-Programmation & Développement : Marc-Olivier Méhu
Soutien technique & logistique : Manuel Goepfert

Contact : metmap@orbifly.com




SOURCES & CREDITS :

   NOAA